Time;durP1;ratioP1;P1;durP2;ratioP2;P2;SDS_P1;SDS_P2;PMS_P1;PMS_P2;Temp;Humidity;BMP_temperature;BMP_pressure;BME280_temperature;BME280_humidity;BME280_pressure;Samples;Min_cycle;Max_cycle;Signal;HPM_P1;HPM_P2
2023/05/04 00:00:07;;;;;;;15.40;8.10;;;;;;;-145.18;100.00;46707.28;4952120;29;20042;-68
2023/05/04 00:02:33;;;;;;;11.73;7.97;;;;;;;-145.18;100.00;46695.56;4952125;29;20086;-68
2023/05/04 00:04:58;;;;;;;12.10;7.57;;;;;;;-145.18;100.00;46695.56;4951638;29;20297;-68
2023/05/04 00:07:24;;;;;;;14.73;8.43;;;;;;;-145.18;100.00;46693.59;4952052;29;20281;-68
2023/05/04 00:09:49;;;;;;;17.13;8.53;;;;;;;-145.18;100.00;46685.78;4952235;29;20031;-68
2023/05/04 00:12:15;;;;;;;15.60;8.80;;;;;;;-145.18;100.00;46679.94;4952386;29;20035;-68
2023/05/04 00:14:41;;;;;;;20.17;8.90;;;;;;;-145.18;100.00;46670.16;4952360;29;20485;-68
2023/05/04 00:17:07;;;;;;;16.03;8.67;;;;;;;-145.18;100.00;46660.41;4951469;29;20301;-68
2023/05/04 00:19:33;;;;;;;12.20;8.00;;;;;;;-145.18;100.00;46676.03;4952118;29;20074;-68
2023/05/04 00:21:59;;;;;;;14.53;8.90;;;;;;;-145.18;100.00;46660.41;4951905;29;20035;-68
2023/05/04 00:24:25;;;;;;;18.90;9.97;;;;;;;-145.18;100.00;46662.34;4952106;29;20762;-68
2023/05/04 00:26:50;;;;;;;19.67;8.90;;;;;;;-145.18;100.00;46666.25;4951827;29;20291;-68
2023/05/04 00:29:16;;;;;;;13.80;7.83;;;;;;;-145.18;100.00;46676.03;4951943;29;20046;-68
2023/05/04 00:31:41;;;;;;;12.00;8.17;;;;;;;-145.18;100.00;46658.44;4951759;29;20079;-68
2023/05/04 00:34:07;;;;;;;15.50;8.50;;;;;;;-145.18;100.00;46652.59;4952009;29;20194;-68
2023/05/04 00:36:33;;;;;;;13.67;9.20;;;;;;;-145.18;100.00;46652.59;4951979;29;20061;-68
2023/05/04 00:38:58;;;;;;;16.17;9.13;;;;;;;-145.18;100.00;46644.78;4951895;29;20528;-68
2023/05/04 00:41:23;;;;;;;16.33;8.37;;;;;;;-145.18;100.00;46644.78;4950843;28;20067;-68
2023/05/04 00:43:49;;;;;;;19.47;9.20;;;;;;;-145.18;100.00;46642.81;4951790;29;20404;-68
2023/05/04 00:46:15;;;;;;;15.03;8.73;;;;;;;-145.18;100.00;46638.91;4951585;29;20035;-68
2023/05/04 00:48:41;;;;;;;15.87;9.23;;;;;;;-145.18;100.00;46636.94;4951829;29;20466;-68
2023/05/04 00:51:09;;;;;;;16.97;9.33;;;;;;;-145.18;100.00;46631.09;4951375;29;20070;-68
2023/05/04 00:53:36;;;;;;;15.33;9.67;;;;;;;-145.18;100.00;46635.00;4951695;29;20304;-68
2023/05/04 00:56:02;;;;;;;14.20;9.17;;;;;;;-145.18;100.00;46638.91;4951707;29;20300;-68
2023/05/04 00:58:30;;;;;;;13.87;9.00;;;;;;;-145.18;100.00;46633.06;4951713;29;20269;-68
2023/05/04 01:00:55;;;;;;;15.30;9.07;;;;;;;-145.18;100.00;46631.09;4951516;29;20281;-68
2023/05/04 01:03:21;;;;;;;14.33;8.90;;;;;;;-145.18;100.00;46629.13;4951608;29;20269;-68
2023/05/04 01:06:04;;;;;;;16.33;9.33;;;;;;;-145.18;100.00;46623.28;4951391;29;20504;-68
2023/05/04 01:08:31;;;;;;;18.47;8.73;;;;;;;-145.18;100.00;46625.22;4951727;29;20031;-68
2023/05/04 01:11:06;;;;;;;13.30;8.90;;;;;;;-145.18;100.00;46611.56;4951469;29;20277;-68
2023/05/04 01:13:33;;;;;;;15.63;9.77;;;;;;;-145.18;100.00;46613.50;4951171;29;20368;-68
2023/05/04 01:15:59;;;;;;;14.87;8.97;;;;;;;-145.18;100.00;46617.41;4951494;29;20269;-68
2023/05/04 01:18:25;;;;;;;16.40;8.90;;;;;;;-145.18;100.00;46617.41;4951331;29;20369;-68
2023/05/04 01:20:50;;;;;;;17.70;9.47;;;;;;;-145.18;100.00;46621.31;4951086;29;20404;-68
2023/05/04 01:23:16;;;;;;;16.10;9.00;;;;;;;-145.18;100.00;46623.28;4951428;29;20055;-68
2023/05/04 01:25:59;;;;;;;18.00;8.27;;;;;;;-145.18;100.00;46615.47;4951506;29;20116;-68
2023/05/04 01:28:57;;;;;;;17.57;9.43;;;;;;;-145.18;100.00;46625.22;4951296;29;20035;-68
2023/05/04 01:31:26;;;;;;;15.03;9.10;;;;;;;-145.18;100.00;46623.28;4950619;29;20282;-68
2023/05/04 01:33:53;;;;;;;16.43;8.83;;;;;;;-145.18;100.00;46611.56;4950967;29;20304;-68
2023/05/04 01:36:22;;;;;;;15.57;9.23;;;;;;;-145.18;100.00;46617.41;4951271;29;20293;-68
2023/05/04 01:38:48;;;;;;;15.10;9.53;;;;;;;-145.18;100.00;46607.66;4951069;29;20645;-69
2023/05/04 01:41:14;;;;;;;17.20;9.23;;;;;;;-145.18;100.00;46605.69;4951405;29;20266;-69
2023/05/04 01:43:40;;;;;;;14.63;8.90;;;;;;;-145.18;100.00;46615.47;4950827;29;20300;-69
2023/05/04 01:46:05;;;;;;;13.43;9.13;;;;;;;-145.18;100.00;46619.38;4951132;29;20406;-68
2023/05/04 01:48:30;;;;;;;13.50;8.60;;;;;;;-145.18;100.00;46611.56;4950995;29;20277;-69
2023/05/04 01:50:56;;;;;;;15.40;9.47;;;;;;;-145.18;100.00;46638.91;4934206;28;20098;-68
2023/05/04 01:53:21;;;;;;;17.23;9.63;;;;;;;-145.18;100.00;46638.91;4937087;29;20047;-68
2023/05/04 01:55:46;;;;;;;18.67;8.90;;;;;;;-145.18;100.00;46633.06;4954587;29;20047;-68
2023/05/04 01:58:12;;;;;;;18.33;9.67;;;;;;;-145.18;100.00;46635.00;4954439;29;20032;-68
2023/05/04 02:03:12;;;;;;;18.60;8.93;;;;;;;-145.18;100.00;46631.09;5012257;22;20392;-70
2023/05/04 02:05:38;;;;;;;15.17;8.70;;;;;;;-145.18;100.00;46625.22;4964293;28;20046;-70
2023/05/04 02:08:03;;;;;;;18.50;8.43;;;;;;;-145.18;100.00;46629.13;4968343;28;20387;-70
2023/05/04 02:10:29;;;;;;;16.00;9.67;;;;;;;-145.18;100.00;46623.28;4962612;28;20070;-70
2023/05/04 02:12:54;;;;;;;18.97;8.97;;;;;;;-145.18;100.00;46576.41;4954545;29;20093;-70
2023/05/04 02:15:20;;;;;;;14.63;8.80;;;;;;;-145.18;100.00;46621.31;4954744;29;20027;-70
2023/05/04 02:17:45;;;;;;;15.13;9.03;;;;;;;-145.18;100.00;46617.41;4956678;28;20035;-70
2023/05/04 02:20:11;;;;;;;19.73;9.40;;;;;;;-145.18;100.00;46623.28;4974058;28;20050;-70
2023/05/04 02:22:37;;;;;;;17.17;8.97;;;;;;;-145.18;100.00;46615.47;4973552;28;20031;-70
2023/05/04 02:25:03;;;;;;;20.87;8.90;;;;;;;-145.18;100.00;46615.47;4973802;28;20276;-70
2023/05/04 02:27:28;;;;;;;18.20;8.83;;;;;;;-145.18;100.00;46574.44;4973392;28;20034;-70
2023/05/04 02:29:57;;;;;;;17.00;8.97;;;;;;;-145.18;100.00;46613.50;4965104;28;20045;-70
2023/05/04 02:32:22;;;;;;;15.97;9.27;;;;;;;-145.18;100.00;46572.50;4973860;28;20042;-70
2023/05/04 02:34:48;;;;;;;18.60;9.63;;;;;;;-145.18;100.00;46613.50;4973648;28;20924;-70
2023/05/04 02:37:13;;;;;;;19.07;8.73;;;;;;;-145.18;100.00;46613.50;4955718;28;20039;-70
2023/05/04 02:39:38;;;;;;;14.30;8.77;;;;;;;-145.18;100.00;46566.63;4961012;28;20480;-70
2023/05/04 02:42:04;;;;;;;15.47;8.90;;;;;;;-145.18;100.00;46566.63;4960778;28;20157;-70
2023/05/04 02:44:30;;;;;;;12.47;8.37;;;;;;;-145.18;100.00;46566.63;4953245;29;20110;-70
2023/05/04 02:46:55;;;;;;;14.23;9.57;;;;;;;-145.18;100.00;46566.63;4953982;29;21073;-70
2023/05/04 02:49:21;;;;;;;15.83;9.53;;;;;;;-145.18;100.00;46564.69;4961301;28;20592;-70
2023/05/04 02:51:46;;;;;;;14.73;8.97;;;;;;;-145.18;100.00;46568.59;4973157;28;20049;-70
2023/05/04 02:54:11;;;;;;;15.80;9.00;;;;;;;-145.18;100.00;46562.72;4973495;28;20034;-70
2023/05/04 02:56:37;;;;;;;17.63;8.80;;;;;;;-145.18;100.00;46568.59;4973196;28;20153;-70
2023/05/04 02:59:02;;;;;;;14.80;9.00;;;;;;;-145.18;100.00;46568.59;4956624;28;20102;-70
2023/05/04 03:01:27;;;;;;;16.50;9.43;;;;;;;-145.18;100.00;46566.63;4953749;29;20089;-70
2023/05/04 03:03:53;;;;;;;15.03;8.80;;;;;;;-145.18;100.00;46609.59;4952706;28;20627;-70
2023/05/04 03:06:18;;;;;;;19.60;9.73;;;;;;;-145.18;100.00;46613.50;4954132;29;20038;-70
2023/05/04 03:08:43;;;;;;;16.27;9.40;;;;;;;-145.18;100.00;46619.38;4967059;28;20514;-70
2023/05/04 03:11:09;;;;;;;19.40;9.00;;;;;;;-145.18;100.00;46619.38;4973062;28;20054;-70
2023/05/04 03:13:34;;;;;;;20.23;9.60;;;;;;;-145.18;100.00;46621.31;4972538;28;20034;-70
2023/05/04 03:15:59;;;;;;;19.27;9.73;;;;;;;-145.18;100.00;46623.28;4955242;28;20027;-70
2023/05/04 03:18:25;;;;;;;17.90;8.87;;;;;;;-145.18;100.00;46623.28;4962050;28;20672;-70
2023/05/04 03:20:50;;;;;;;13.77;9.60;;;;;;;-145.18;100.00;46627.19;4953618;29;20137;-70
2023/05/04 03:23:15;;;;;;;17.87;9.03;;;;;;;-145.18;100.00;46633.06;4953404;29;20039;-70
2023/05/04 03:25:41;;;;;;;16.30;9.37;;;;;;;-145.18;100.00;46633.06;4953322;29;20093;-70
2023/05/04 03:28:06;;;;;;;15.97;8.70;;;;;;;-145.18;100.00;46633.06;4961026;28;20485;-70
2023/05/04 03:30:31;;;;;;;15.47;9.43;;;;;;;-145.18;100.00;46633.06;4972849;28;20043;-70
2023/05/04 03:32:57;;;;;;;13.70;8.43;;;;;;;-145.18;100.00;46636.94;4972316;28;20030;-70
2023/05/04 03:35:22;;;;;;;21.40;9.70;;;;;;;-145.18;100.00;46638.91;4972814;28;20081;-70
2023/05/04 03:37:47;;;;;;;17.47;9.60;;;;;;;-145.18;100.00;46644.78;4966610;28;20053;-70
2023/05/04 03:40:13;;;;;;;17.37;9.67;;;;;;;-145.18;100.00;46652.59;4953189;29;20047;-70
2023/05/04 03:42:38;;;;;;;14.73;9.53;;;;;;;-145.18;100.00;46652.59;4952960;28;20075;-70
2023/05/04 03:45:05;;;;;;;18.57;9.80;;;;;;;-145.18;100.00;46642.81;4953422;29;20106;-70
2023/05/04 03:47:30;;;;;;;15.47;8.70;;;;;;;-145.18;100.00;46638.91;4955419;28;20050;-70
2023/05/04 03:49:55;;;;;;;18.80;8.87;;;;;;;-145.18;100.00;46638.91;4972061;28;20296;-70
2023/05/04 03:52:21;;;;;;;17.03;9.73;;;;;;;-145.18;100.00;46652.59;4972185;28;20043;-70
2023/05/04 03:54:46;;;;;;;21.20;9.20;;;;;;;-145.18;100.00;46642.81;4972169;28;20038;-70
2023/05/04 03:57:11;;;;;;;15.97;9.43;;;;;;;-145.18;100.00;46652.59;4971847;28;20043;-70
2023/05/04 03:59:37;;;;;;;15.23;9.23;;;;;;;-145.18;100.00;46640.88;4952899;28;20077;-70
2023/05/04 04:02:02;;;;;;;15.93;9.23;;;;;;;-145.18;100.00;46638.91;4968754;28;20415;-70
2023/05/04 04:04:27;;;;;;;16.80;9.67;;;;;;;-145.18;100.00;46635.00;4972133;28;20354;-70
2023/05/04 04:06:53;;;;;;;17.43;9.67;;;;;;;-145.18;100.00;46631.09;4971891;28;20043;-70
2023/05/04 04:09:18;;;;;;;12.10;8.60;;;;;;;-145.18;100.00;46625.22;4955194;28;20036;-70
2023/05/04 04:11:44;;;;;;;17.43;8.80;;;;;;;-145.18;100.00;46625.22;4952626;29;20042;-70
2023/05/04 04:14:09;;;;;;;12.47;8.20;;;;;;;-145.18;100.00;46623.28;4952647;28;20480;-70
2023/05/04 04:16:34;;;;;;;18.30;9.93;;;;;;;-145.18;100.00;46627.19;4952410;29;20057;-69
2023/05/04 04:19:00;;;;;;;19.63;9.40;;;;;;;-145.18;100.00;46629.13;4963852;28;20133;-70
2023/05/04 04:21:26;;;;;;;15.00;9.10;;;;;;;-145.18;100.00;46636.94;4970505;28;20038;-69
2023/05/04 04:23:52;;;;;;;15.43;9.10;;;;;;;-145.18;100.00;46640.88;4954154;28;20479;-70
2023/05/04 04:26:19;;;;;;;18.00;9.37;;;;;;;-145.18;100.00;46652.59;4971830;28;20280;-69
2023/05/04 04:28:49;;;;;;;15.20;9.73;;;;;;;-145.18;100.00;46660.41;4957629;28;20047;-70
2023/05/04 04:31:15;;;;;;;14.43;8.43;;;;;;;-145.18;100.00;46660.41;4952300;29;20289;-70
2023/05/04 04:33:41;;;;;;;19.63;10.07;;;;;;;-145.18;100.00;46638.91;4951833;29;20285;-69
2023/05/04 04:36:07;;;;;;;18.70;9.07;;;;;;;-145.18;100.00;46640.88;4939482;28;20641;-69
2023/05/04 04:38:33;;;;;;;15.47;9.70;;;;;;;-145.18;100.00;46648.69;4959325;28;20785;-69
2023/05/04 04:40:58;;;;;;;15.43;8.90;;;;;;;-145.18;100.00;46648.69;4952275;29;20356;-69
2023/05/04 04:43:24;;;;;;;19.90;9.33;;;;;;;-145.18;100.00;46654.53;4966568;28;20125;-69
2023/05/04 04:45:49;;;;;;;15.53;8.67;;;;;;;-145.18;100.00;46648.69;4969249;28;20056;-69
2023/05/04 04:48:14;;;;;;;18.73;8.87;;;;;;;-145.18;100.00;46644.78;4960897;28;20401;-69
2023/05/04 04:50:40;;;;;;;18.80;9.17;;;;;;;-145.18;100.00;46644.78;4970640;28;20039;-69
2023/05/04 04:53:05;;;;;;;18.07;9.40;;;;;;;-145.18;100.00;46652.59;4967422;28;20093;-69
2023/05/04 04:55:31;;;;;;;20.30;9.97;;;;;;;-145.18;100.00;46644.78;4971381;28;20782;-69
2023/05/04 04:57:56;;;;;;;18.73;9.70;;;;;;;-145.18;100.00;46636.94;4970928;28;20495;-69
2023/05/04 05:00:22;;;;;;;18.47;9.10;;;;;;;-145.18;100.00;46635.00;4971429;28;20038;-69
2023/05/04 05:02:48;;;;;;;18.80;9.03;;;;;;;-145.18;100.00;46660.41;4970225;28;20051;-69
2023/05/04 05:05:13;;;;;;;17.07;9.33;;;;;;;-145.18;100.00;46654.53;4969396;28;20283;-69
2023/05/04 05:07:39;;;;;;;15.40;9.30;;;;;;;-145.18;100.00;46629.13;4970781;28;20243;-69
2023/05/04 05:10:05;;;;;;;16.70;8.47;;;;;;;-145.18;100.00;46582.25;4971217;28;20054;-69
2023/05/04 05:12:30;;;;;;;14.77;8.73;;;;;;;-145.18;100.00;46574.44;4971019;28;20519;-69
2023/05/04 05:14:56;;;;;;;15.23;9.27;;;;;;;-145.18;100.00;46564.69;4970633;28;20033;-69
2023/05/04 05:17:21;;;;;;;17.43;9.37;;;;;;;-145.18;100.00;46558.81;4971055;28;20039;-69
2023/05/04 05:19:47;;;;;;;18.30;8.97;;;;;;;-145.18;100.00;46556.88;4970825;28;20050;-69
2023/05/04 05:22:12;;;;;;;20.67;10.37;;;;;;;-145.18;100.00;46547.09;4970876;28;20046;-69
2023/05/04 05:24:37;;;;;;;14.13;8.90;;;;;;;-145.18;100.00;46549.06;4970796;28;20118;-69
2023/05/04 05:27:03;;;;;;;16.07;9.37;;;;;;;-145.18;100.00;46543.19;4972571;28;20042;-69
2023/05/04 05:29:28;;;;;;;13.30;8.53;;;;;;;-145.18;100.00;46545.16;4974070;28;20118;-69
2023/05/04 05:31:53;;;;;;;16.33;9.70;;;;;;;-145.18;100.00;46551.00;4974556;28;20038;-69
2023/05/04 05:34:19;;;;;;;17.67;9.93;;;;;;;-145.18;100.00;46545.16;4974563;28;20038;-69
2023/05/04 05:36:44;;;;;;;17.63;9.60;;;;;;;-145.18;100.00;46549.06;4974249;28;20104;-69
2023/05/04 05:39:10;;;;;;;16.80;8.90;;;;;;;-145.18;100.00;46543.19;4974431;28;20026;-69
2023/05/04 05:41:36;;;;;;;16.60;9.30;;;;;;;-145.18;100.00;46545.16;4974430;28;20027;-69
2023/05/04 05:44:01;;;;;;;16.40;8.50;;;;;;;-145.18;100.00;46554.91;4974137;28;20039;-68
2023/05/04 05:46:27;;;;;;;16.80;9.60;;;;;;;-145.18;100.00;46554.91;4974493;28;20050;-69
2023/05/04 05:48:52;;;;;;;14.83;9.27;;;;;;;-145.18;100.00;46554.91;4973918;28;20089;-68
2023/05/04 05:51:18;;;;;;;15.73;9.20;;;;;;;-145.18;100.00;46554.91;4974597;28;20031;-69
2023/05/04 05:53:44;;;;;;;12.33;8.10;;;;;;;-145.18;100.00;46560.78;4974155;28;20034;-69
2023/05/04 05:56:09;;;;;;;14.93;8.70;;;;;;;-145.18;100.00;46556.88;4972651;28;20026;-69
2023/05/04 05:58:36;;;;;;;15.07;9.07;;;;;;;-145.18;100.00;46562.72;4955237;28;20288;-69
2023/05/04 06:01:02;;;;;;;17.83;9.37;;;;;;;-145.18;100.00;46560.78;4955080;29;20031;-69
2023/05/04 06:03:27;;;;;;;19.20;9.57;;;;;;;-145.18;100.00;46566.63;4954940;29;20308;-69
2023/05/04 06:05:53;;;;;;;17.60;8.63;;;;;;;-145.18;100.00;46566.63;4955010;29;20758;-69
2023/05/04 06:08:18;;;;;;;17.30;9.33;;;;;;;-145.18;100.00;46568.59;4954706;28;20447;-69
2023/05/04 06:10:44;;;;;;;14.63;8.87;;;;;;;-145.18;100.00;46564.69;4954542;29;20035;-69
2023/05/04 06:13:10;;;;;;;16.07;9.07;;;;;;;-145.18;100.00;46568.59;4954338;29;20046;-69
2023/05/04 06:15:35;;;;;;;14.07;8.30;;;;;;;-145.18;100.00;46566.63;4954851;29;20277;-69
2023/05/04 06:18:01;;;;;;;16.87;9.23;;;;;;;-145.18;100.00;46576.41;4953934;28;20500;-69
2023/05/04 06:20:27;;;;;;;13.27;8.63;;;;;;;-145.18;100.00;46570.53;4954832;29;20507;-69
2023/05/04 06:22:53;;;;;;;12.40;8.10;;;;;;;-145.18;100.00;46580.31;4937132;29;20690;-69
2023/05/04 06:25:18;;;;;;;13.77;8.87;;;;;;;-145.18;100.00;46574.44;4954478;28;20281;-69
2023/05/04 06:27:43;;;;;;;15.37;9.17;;;;;;;-145.18;100.00;46566.63;4953826;29;20042;-69
2023/05/04 06:30:09;;;;;;;12.50;7.97;;;;;;;-145.18;100.00;46578.34;4954567;28;20039;-69
2023/05/04 06:32:35;;;;;;;11.00;7.67;;;;;;;-145.18;100.00;46590.06;4954150;28;20113;-69
2023/05/04 06:35:01;;;;;;;16.60;7.67;;;;;;;-145.18;100.00;46603.75;4954422;29;20086;-69
2023/05/04 06:37:26;;;;;;;15.60;8.10;;;;;;;-145.18;100.00;46601.78;4956892;28;20054;-69
2023/05/04 06:39:52;;;;;;;12.57;7.70;;;;;;;-145.18;100.00;46595.94;4969796;28;20281;-69
2023/05/04 06:42:17;;;;;;;12.97;8.47;;;;;;;-145.18;100.00;46603.75;4957974;28;20051;-69
2023/05/04 06:44:43;;;;;;;12.47;6.77;;;;;;;-145.18;100.00;46595.94;4953729;29;20046;-69
2023/05/04 06:47:08;;;;;;;13.40;7.70;;;;;;;-145.18;100.00;46599.84;4954595;29;20035;-69
2023/05/04 06:49:33;;;;;;;14.37;7.83;;;;;;;-145.18;100.00;46601.78;4954164;28;20055;-69
2023/05/04 06:51:59;;;;;;;15.30;8.03;;;;;;;-145.18;100.00;46617.41;4954061;29;20485;-69
2023/05/04 06:54:26;;;;;;;13.50;8.17;;;;;;;-145.18;100.00;46619.38;4953784;28;20043;-69
2023/05/04 06:56:51;;;;;;;13.50;7.07;;;;;;;-145.18;100.00;46623.28;4953893;29;20692;-69
2023/05/04 06:59:19;;;;;;;16.53;8.80;;;;;;;-145.18;100.00;46611.56;4956607;28;20296;-69
2023/05/04 07:01:46;;;;;;;11.37;7.00;;;;;;;-145.18;100.00;46609.59;4953647;28;20027;-68
2023/05/04 07:04:11;;;;;;;12.50;7.90;;;;;;;-145.18;100.00;46613.50;4962241;28;20289;-69
2023/05/04 07:06:38;;;;;;;15.43;8.43;;;;;;;-145.18;100.00;46623.28;4972896;28;20315;-69
2023/05/04 07:09:03;;;;;;;15.37;8.07;;;;;;;-145.18;100.00;46607.66;4972812;28;20101;-67
2023/05/04 07:11:29;;;;;;;12.37;7.73;;;;;;;-145.18;100.00;46619.38;4973188;28;20309;-67
2023/05/04 07:13:55;;;;;;;13.13;7.93;;;;;;;-145.18;100.00;46629.13;4972600;28;20043;-66
2023/05/04 07:16:20;;;;;;;11.73;7.40;;;;;;;-145.18;100.00;46640.88;4973152;28;20049;-66
2023/05/04 07:18:46;;;;;;;12.20;8.03;;;;;;;-145.18;100.00;46648.69;4972536;28;20031;-67
2023/05/04 07:21:12;;;;;;;13.37;8.43;;;;;;;-145.18;100.00;46660.41;4971762;28;20122;-66
2023/05/04 07:23:38;;;;;;;16.30;7.67;;;;;;;-145.18;100.00;46660.41;4971526;28;20050;-66
2023/05/04 07:26:03;;;;;;;9.67;7.53;;;;;;;-145.18;100.00;46644.78;4971434;28;20038;-67
2023/05/04 07:28:29;;;;;;;15.83;7.63;;;;;;;-145.18;100.00;46656.50;4971830;28;20656;-67
2023/05/04 07:30:54;;;;;;;12.97;7.80;;;;;;;-145.18;100.00;46679.94;4971052;28;20471;-67
2023/05/04 07:33:20;;;;;;;14.93;8.50;;;;;;;-145.18;100.00;46701.41;4971566;28;20066;-67
2023/05/04 07:35:45;;;;;;;12.77;8.20;;;;;;;-145.18;100.00;46707.28;4972044;28;20472;-66
2023/05/04 07:38:11;;;;;;;12.33;7.83;;;;;;;-145.18;100.00;46676.03;4972437;28;20077;-67
2023/05/04 07:40:36;;;;;;;11.13;7.77;;;;;;;-145.18;100.00;46681.88;4972419;28;20042;-67
2023/05/04 07:43:01;;;;;;;11.97;7.43;;;;;;;-145.18;100.00;46715.09;4972199;28;20472;-66
2023/05/04 07:45:27;;;;;;;14.57;8.03;;;;;;;-145.18;100.00;46689.69;4972647;28;20079;-67
2023/05/04 07:47:52;;;;;;;8.80;6.73;;;;;;;-145.18;100.00;46707.28;4954655;28;20068;-66
2023/05/04 07:50:18;;;;;;;11.17;6.80;;;;;;;-145.18;100.00;46720.94;4972112;28;20038;-67
2023/05/04 07:52:45;;;;;;;10.77;7.67;;;;;;;-145.18;100.00;46705.31;4972162;28;20484;-67
2023/05/04 07:55:10;;;;;;;19.37;7.57;;;;;;;-145.18;100.00;46703.38;4939107;28;20054;-66
2023/05/04 07:57:36;;;;;;;10.47;7.50;;;;;;;-145.18;100.00;46728.75;4972379;28;20399;-67
2023/05/04 08:00:04;;;;;;;12.93;8.00;;;;;;;-145.18;100.00;46736.56;4971905;28;20034;-67
2023/05/04 08:02:29;;;;;;;17.13;8.57;;;;;;;-145.18;100.00;46732.66;4971743;28;20047;-66
2023/05/04 08:04:55;;;;;;;14.77;8.63;;;;;;;-145.18;100.00;46724.84;4971735;28;20049;-67
2023/05/04 08:07:21;;;;;;;11.63;7.20;;;;;;;-145.18;100.00;46738.53;4972092;28;20105;-67
2023/05/04 08:09:47;;;;;;;11.23;7.30;;;;;;;-145.18;100.00;46722.91;4971735;28;20111;-67
2023/05/04 08:12:12;;;;;;;13.00;7.77;;;;;;;-145.18;100.00;46720.94;4972075;28;20047;-67
2023/05/04 08:14:38;;;;;;;15.67;7.83;;;;;;;-145.18;100.00;46740.47;4971616;28;20089;-67
2023/05/04 08:17:04;;;;;;;11.23;6.80;;;;;;;-145.18;100.00;46756.09;4971820;28;20070;-67
2023/05/04 08:19:29;;;;;;;13.17;8.00;;;;;;;-145.18;100.00;46699.47;4971718;28;20069;-67
2023/05/04 08:21:55;;;;;;;9.60;6.87;;;;;;;-145.18;100.00;46914.34;4971731;28;20041;-67
2023/05/04 08:24:20;;;;;;;16.27;6.70;;;;;;;-145.18;100.00;47381.25;4971599;28;20042;-67
2023/05/04 08:26:46;;;;;;;9.40;6.67;;;;;;;-145.18;100.00;47383.19;4971683;28;20042;-67
2023/05/04 08:29:11;;;;;;;11.17;6.67;;;;;;;-145.18;100.00;47385.16;4971404;28;20038;-66
2023/05/04 08:31:37;;;;;;;10.50;7.27;;;;;;;-145.18;100.00;47389.06;4971725;28;20030;-67
2023/05/04 08:34:03;;;;;;;11.60;6.90;;;;;;;-145.18;100.00;47385.16;4971269;28;20500;-67
2023/05/04 08:36:29;;;;;;;16.07;6.70;;;;;;;-145.18;100.00;47375.38;4971385;28;20045;-67
2023/05/04 08:38:54;;;;;;;10.90;6.97;;;;;;;-145.18;100.00;47398.81;4971329;28;20113;-67
2023/05/04 08:41:20;;;;;;;11.93;7.40;;;;;;;-145.18;100.00;47344.13;4971534;28;20543;-67
2023/05/04 08:43:48;;;;;;;20.20;7.17;;;;;;;-145.18;100.00;47381.25;4971259;28;20062;-67
2023/05/04 08:46:15;;;;;;;14.13;7.27;;;;;;;-145.18;100.00;47375.38;4971479;28;20034;-67
2023/05/04 08:48:43;;;;;;;11.37;7.43;;;;;;;-145.18;100.00;47367.56;4971166;28;20035;-67
2023/05/04 08:51:09;;;;;;;13.70;6.80;;;;;;;-145.18;100.00;47361.72;4954587;28;20638;-67
2023/05/04 08:53:36;;;;;;;17.23;6.53;;;;;;;-145.18;100.00;47359.75;4971330;28;20050;-67
2023/05/04 08:56:08;;;;;;;10.90;6.73;;;;;;;-145.18;100.00;47340.22;4971223;28;20035;-67
2023/05/04 08:58:36;;;;;;;12.93;8.00;;;;;;;-145.18;100.00;47346.06;4971061;28;20041;-67
2023/05/04 09:01:03;;;;;;;10.93;6.37;;;;;;;-145.18;100.00;47316.78;4970733;28;20039;-67
2023/05/04 09:03:29;;;;;;;14.27;8.73;;;;;;;-145.18;100.00;47289.41;4970782;28;20137;-67
2023/05/04 09:05:55;;;;;;;10.13;7.37;;;;;;;-145.18;100.00;47328.50;4971167;28;20137;-67
2023/05/04 09:08:21;;;;;;;12.90;7.90;;;;;;;-145.18;100.00;47357.78;4970914;28;20035;-67
2023/05/04 09:10:47;;;;;;;17.10;6.97;;;;;;;-145.18;100.00;47359.75;4971015;28;20035;-67
2023/05/04 09:13:12;;;;;;;14.77;7.80;;;;;;;-145.18;100.00;47320.69;4971139;28;20039;-67
2023/05/04 09:15:37;;;;;;;10.57;7.77;;;;;;;-145.18;100.00;47307.00;4971181;28;20118;-67
2023/05/04 09:18:05;;;;;;;15.40;7.47;;;;;;;-145.18;100.00;47283.56;4970805;28;20031;-67
2023/05/04 09:20:42;;;;;;;16.57;8.53;;;;;;;-145.18;100.00;47265.97;4971114;28;20441;-67
2023/05/04 09:23:08;;;;;;;14.60;8.20;;;;;;;-145.18;100.00;47248.41;4971066;28;20059;-67
2023/05/04 09:25:46;;;;;;;11.87;7.00;;;;;;;-145.18;100.00;47238.63;4953504;28;20777;-68
2023/05/04 09:28:11;;;;;;;10.07;7.03;;;;;;;-145.18;100.00;47219.09;4971055;28;20031;-67
2023/05/04 09:30:37;;;;;;;12.33;7.10;;;;;;;-145.18;100.00;47201.50;4971046;28;20403;-67
2023/05/04 09:33:03;;;;;;;11.63;7.27;;;;;;;-145.18;100.00;47230.81;4970772;28;20407;-67
2023/05/04 09:35:29;;;;;;;11.90;7.13;;;;;;;-145.18;100.00;47207.38;4971017;28;20480;-67
2023/05/04 09:37:55;;;;;;;11.37;7.30;;;;;;;-145.18;100.00;47203.47;4970811;28;20530;-68
2023/05/04 09:40:30;;;;;;;16.07;7.07;;;;;;;-145.18;100.00;47203.47;4970642;28;20066;-67
2023/05/04 09:42:56;;;;;;;10.32;7.35;;;;;;;-145.18;100.00;47205.41;4970822;28;20047;-67
2023/05/04 09:45:21;;;;;;;10.27;7.23;;;;;;;-145.18;100.00;47211.28;4970644;28;20444;-68
2023/05/04 09:47:47;;;;;;;11.17;6.70;;;;;;;-145.18;100.00;47193.69;4970786;28;20058;-68
2023/05/04 09:50:22;;;;;;;9.07;6.97;;;;;;;-145.18;100.00;47180.03;4970695;28;20042;-67
2023/05/04 09:52:48;;;;;;;13.55;7.85;;;;;;;-145.18;100.00;47181.97;4970890;28;20031;-67
2023/05/04 09:55:16;;;;;;;14.10;7.07;;;;;;;-145.18;100.00;47164.38;4970657;28;20050;-67
2023/05/04 09:57:43;;;;;;;8.80;7.13;;;;;;;-145.18;100.00;47176.09;4970490;28;20476;-67
2023/05/04 10:00:14;;;;;;;10.40;7.23;;;;;;;-145.18;100.00;47170.25;4970725;28;20031;-67
2023/05/04 10:02:45;;;;;;;12.27;6.30;;;;;;;-145.18;100.00;47176.09;4970040;28;20045;-67
2023/05/04 10:05:15;;;;;;;10.40;7.43;;;;;;;-145.18;100.00;47168.28;4970685;28;20061;-67
2023/05/04 10:07:41;;;;;;;12.10;6.90;;;;;;;-145.18;100.00;47172.19;4970663;28;20138;-67
2023/05/04 10:10:08;;;;;;;8.93;6.83;;;;;;;-145.18;100.00;47156.56;4970578;28;20066;-67
2023/05/04 10:12:34;;;;;;;12.90;6.87;;;;;;;-145.18;100.00;47156.56;4971227;28;20030;-67
2023/05/04 10:15:00;;;;;;;11.17;7.47;;;;;;;-145.18;100.00;47162.44;4973923;28;20451;-67
2023/05/04 10:17:41;;;;;;;11.93;7.20;;;;;;;-145.18;100.00;47148.75;4956658;28;20467;-67
2023/05/04 10:20:45;;;;;;;10.70;7.33;;;;;;;-145.18;100.00;47160.47;4973676;28;20031;-68
2023/05/04 10:23:31;;;;;;;11.47;6.07;;;;;;;-145.18;100.00;47150.72;4945849;28;20054;-68
2023/05/04 10:26:15;;;;;;;13.30;7.22;;;;;;;-145.18;100.00;47144.84;4973887;28;20031;-67
2023/05/04 10:28:59;;;;;;;12.60;7.43;;;;;;;-145.18;100.00;47150.72;4973228;28;20038;-67
2023/05/04 10:31:35;;;;;;;8.63;6.83;;;;;;;-145.18;100.00;47152.66;4973963;28;20073;-68
2023/05/04 10:34:01;;;;;;;10.33;7.30;;;;;;;-145.18;100.00;47131.19;4973636;28;20081;-67
2023/05/04 10:36:34;;;;;;;14.50;7.60;;;;;;;-145.18;100.00;47142.91;4973978;28;20034;-67
2023/05/04 10:39:00;;;;;;;15.77;7.63;;;;;;;-145.18;100.00;47133.13;4973362;28;20468;-67
2023/05/04 10:41:25;;;;;;;13.13;7.57;;;;;;;-145.18;100.00;47133.13;4967782;28;20556;-68
2023/05/04 10:44:01;;;;;;;16.57;8.53;;;;;;;-145.18;100.00;47129.22;4962268;28;20731;-67
2023/05/04 10:46:27;;;;;;;12.33;6.67;;;;;;;-145.18;100.00;47125.31;4962993;28;20085;-67
2023/05/04 10:48:52;;;;;;;11.97;7.27;;;;;;;-145.18;100.00;47117.50;4963850;28;20043;-67
2023/05/04 10:51:18;;;;;;;13.10;7.27;;;;;;;-145.18;100.00;47109.69;4962779;28;20028;-67
2023/05/04 10:53:44;;;;;;;12.23;6.97;;;;;;;-145.18;100.00;47113.59;4962843;28;20054;-68
2023/05/04 10:56:23;;;;;;;11.07;7.77;;;;;;;-145.18;100.00;47094.06;4964315;28;20033;-68
2023/05/04 10:58:48;;;;;;;9.43;7.07;;;;;;;-145.18;100.00;47094.06;4953437;29;20065;-67
2023/05/04 11:01:14;;;;;;;15.57;8.37;;;;;;;-145.18;100.00;47096.00;4953936;29;20110;-68